sensor_id;sensor_type;location;lat;lon;timestamp;temperature;humidity
13332;DHT22;6735;51.456;12.626;2023-09-12T00:00:41;17.10;80.60
13332;DHT22;6735;51.456;12.626;2023-09-12T00:03:07;17.10;80.80
13332;DHT22;6735;51.456;12.626;2023-09-12T00:05:32;17.10;80.80
13332;DHT22;6735;51.456;12.626;2023-09-12T00:07:57;17.00;81.00
13332;DHT22;6735;51.456;12.626;2023-09-12T00:10:23;17.00;81.00
13332;DHT22;6735;51.456;12.626;2023-09-12T00:12:48;17.00;81.20
13332;DHT22;6735;51.456;12.626;2023-09-12T00:15:14;16.90;81.40
13332;DHT22;6735;51.456;12.626;2023-09-12T00:17:40;16.90;81.30
13332;DHT22;6735;51.456;12.626;2023-09-12T00:20:06;16.90;81.50
13332;DHT22;6735;51.456;12.626;2023-09-12T00:22:33;16.90;81.50
13332;DHT22;6735;51.456;12.626;2023-09-12T00:24:58;16.80;81.60
13332;DHT22;6735;51.456;12.626;2023-09-12T00:27:24;16.80;81.60
13332;DHT22;6735;51.456;12.626;2023-09-12T00:29:49;16.80;81.70
13332;DHT22;6735;51.456;12.626;2023-09-12T00:32:15;16.80;81.70
13332;DHT22;6735;51.456;12.626;2023-09-12T00:34:40;16.80;81.70
13332;DHT22;6735;51.456;12.626;2023-09-12T00:37:06;16.80;81.70
13332;DHT22;6735;51.456;12.626;2023-09-12T00:39:31;16.80;81.70
13332;DHT22;6735;51.456;12.626;2023-09-12T00:41:57;16.80;81.70
13332;DHT22;6735;51.456;12.626;2023-09-12T00:44:22;16.80;81.60
13332;DHT22;6735;51.456;12.626;2023-09-12T00:46:49;16.80;81.60
13332;DHT22;6735;51.456;12.626;2023-09-12T00:49:17;16.80;81.70
13332;DHT22;6735;51.456;12.626;2023-09-12T00:51:43;16.80;81.60
13332;DHT22;6735;51.456;12.626;2023-09-12T00:54:10;16.80;81.60
13332;DHT22;6735;51.456;12.626;2023-09-12T00:56:36;16.70;81.70
13332;DHT22;6735;51.456;12.626;2023-09-12T00:59:03;16.70;81.70
13332;DHT22;6735;51.456;12.626;2023-09-12T01:01:29;16.70;81.70
13332;DHT22;6735;51.456;12.626;2023-09-12T01:03:56;16.70;81.80
13332;DHT22;6735;51.456;12.626;2023-09-12T01:06:25;16.70;81.80
13332;DHT22;6735;51.456;12.626;2023-09-12T01:08:53;16.60;81.80
13332;DHT22;6735;51.456;12.626;2023-09-12T01:11:19;16.60;81.90
13332;DHT22;6735;51.456;12.626;2023-09-12T01:13:45;16.60;81.90
13332;DHT22;6735;51.456;12.626;2023-09-12T01:16:11;16.60;82.10
13332;DHT22;6735;51.456;12.626;2023-09-12T01:18:36;16.60;82.10
13332;DHT22;6735;51.456;12.626;2023-09-12T01:27:25;16.50;82.40
13332;DHT22;6735;51.456;12.626;2023-09-12T01:29:57;16.50;82.40
13332;DHT22;6735;51.456;12.626;2023-09-12T01:32:23;16.50;82.30
13332;DHT22;6735;51.456;12.626;2023-09-12T01:34:48;16.40;82.40
13332;DHT22;6735;51.456;12.626;2023-09-12T01:37:14;16.50;82.50
13332;DHT22;6735;51.456;12.626;2023-09-12T01:39:40;16.40;82.50
13332;DHT22;6735;51.456;12.626;2023-09-12T01:42:08;16.40;82.60
13332;DHT22;6735;51.456;12.626;2023-09-12T01:44:37;16.40;82.60
13332;DHT22;6735;51.456;12.626;2023-09-12T01:47:04;16.40;82.60
13332;DHT22;6735;51.456;12.626;2023-09-12T01:49:32;16.30;82.60
13332;DHT22;6735;51.456;12.626;2023-09-12T01:51:58;16.30;82.60
13332;DHT22;6735;51.456;12.626;2023-09-12T01:54:26;16.30;82.80
13332;DHT22;6735;51.456;12.626;2023-09-12T01:56:51;16.20;82.90
13332;DHT22;6735;51.456;12.626;2023-09-12T01:59:18;16.20;82.90
13332;DHT22;6735;51.456;12.626;2023-09-12T02:01:44;16.20;82.90
13332;DHT22;6735;51.456;12.626;2023-09-12T02:04:09;16.20;83.00
13332;DHT22;6735;51.456;12.626;2023-09-12T02:06:35;16.20;83.10
13332;DHT22;6735;51.456;12.626;2023-09-12T02:09:01;16.20;83.10
13332;DHT22;6735;51.456;12.626;2023-09-12T02:11:27;16.20;83.00
13332;DHT22;6735;51.456;12.626;2023-09-12T02:13:52;16.10;83.10
13332;DHT22;6735;51.456;12.626;2023-09-12T02:16:18;16.10;83.10
13332;DHT22;6735;51.456;12.626;2023-09-12T02:18:43;16.10;83.10
13332;DHT22;6735;51.456;12.626;2023-09-12T02:21:09;16.10;83.10
13332;DHT22;6735;51.456;12.626;2023-09-12T02:23:34;16.10;83.20
13332;DHT22;6735;51.456;12.626;2023-09-12T02:26:00;16.10;83.20
13332;DHT22;6735;51.456;12.626;2023-09-12T02:28:25;16.10;83.30
13332;DHT22;6735;51.456;12.626;2023-09-12T02:30:51;16.10;83.30
13332;DHT22;6735;51.456;12.626;2023-09-12T02:33:16;16.10;83.50
13332;DHT22;6735;51.456;12.626;2023-09-12T02:35:42;16.10;83.40
13332;DHT22;6735;51.456;12.626;2023-09-12T02:38:07;16.00;83.50
13332;DHT22;6735;51.456;12.626;2023-09-12T02:40:33;16.00;83.50
13332;DHT22;6735;51.456;12.626;2023-09-12T02:42:58;16.10;83.50
13332;DHT22;6735;51.456;12.626;2023-09-12T02:45:24;16.00;83.40
13332;DHT22;6735;51.456;12.626;2023-09-12T02:47:49;16.00;83.50
13332;DHT22;6735;51.456;12.626;2023-09-12T02:50:15;16.10;83.50
13332;DHT22;6735;51.456;12.626;2023-09-12T02:52:40;16.10;83.60
13332;DHT22;6735;51.456;12.626;2023-09-12T02:55:06;16.10;83.50
13332;DHT22;6735;51.456;12.626;2023-09-12T02:57:32;16.10;83.50
13332;DHT22;6735;51.456;12.626;2023-09-12T02:59:58;16.10;83.50
13332;DHT22;6735;51.456;12.626;2023-09-12T03:02:23;16.00;83.50
13332;DHT22;6735;51.456;12.626;2023-09-12T03:04:49;16.10;83.50
13332;DHT22;6735;51.456;12.626;2023-09-12T03:07:15;16.10;83.40
13332;DHT22;6735;51.456;12.626;2023-09-12T03:09:40;16.00;83.50
13332;DHT22;6735;51.456;12.626;2023-09-12T03:12:06;16.00;83.50
13332;DHT22;6735;51.456;12.626;2023-09-12T03:14:32;16.00;83.50
13332;DHT22;6735;51.456;12.626;2023-09-12T03:16:58;16.00;83.50
13332;DHT22;6735;51.456;12.626;2023-09-12T03:19:23;16.00;83.50
13332;DHT22;6735;51.456;12.626;2023-09-12T03:21:49;16.00;83.40
13332;DHT22;6735;51.456;12.626;2023-09-12T03:24:14;16.00;83.40
13332;DHT22;6735;51.456;12.626;2023-09-12T03:26:43;16.00;83.40
13332;DHT22;6735;51.456;12.626;2023-09-12T03:29:08;16.00;83.50
13332;DHT22;6735;51.456;12.626;2023-09-12T03:31:35;16.00;83.50
13332;DHT22;6735;51.456;12.626;2023-09-12T03:34:01;15.90;83.60
13332;DHT22;6735;51.456;12.626;2023-09-12T03:36:26;15.90;83.70
13332;DHT22;6735;51.456;12.626;2023-09-12T03:38:52;16.00;83.70
13332;DHT22;6735;51.456;12.626;2023-09-12T03:41:17;15.90;83.60
13332;DHT22;6735;51.456;12.626;2023-09-12T03:43:43;15.90;83.60
13332;DHT22;6735;51.456;12.626;2023-09-12T03:46:08;15.90;83.70
13332;DHT22;6735;51.456;12.626;2023-09-12T03:48:34;15.90;83.60
13332;DHT22;6735;51.456;12.626;2023-09-12T03:51:02;15.90;83.70
13332;DHT22;6735;51.456;12.626;2023-09-12T03:53:29;15.90;83.80
13332;DHT22;6735;51.456;12.626;2023-09-12T03:55:54;15.90;83.60
13332;DHT22;6735;51.456;12.626;2023-09-12T03:58:20;15.90;83.60
13332;DHT22;6735;51.456;12.626;2023-09-12T04:00:46;15.80;83.60
13332;DHT22;6735;51.456;12.626;2023-09-12T04:03:11;15.90;83.60
13332;DHT22;6735;51.456;12.626;2023-09-12T04:05:37;15.90;83.60
13332;DHT22;6735;51.456;12.626;2023-09-12T04:08:02;15.80;83.60
13332;DHT22;6735;51.456;12.626;2023-09-12T04:10:28;15.80;83.60
13332;DHT22;6735;51.456;12.626;2023-09-12T04:12:53;15.80;83.60
13332;DHT22;6735;51.456;12.626;2023-09-12T04:15:19;15.80;83.60
13332;DHT22;6735;51.456;12.626;2023-09-12T04:17:45;15.80;83.70
13332;DHT22;6735;51.456;12.626;2023-09-12T04:20:10;15.70;83.60
13332;DHT22;6735;51.456;12.626;2023-09-12T04:22:39;15.70;83.70
13332;DHT22;6735;51.456;12.626;2023-09-12T04:25:05;15.70;83.70
13332;DHT22;6735;51.456;12.626;2023-09-12T04:27:31;15.70;83.70
13332;DHT22;6735;51.456;12.626;2023-09-12T04:29:56;15.70;83.70
13332;DHT22;6735;51.456;12.626;2023-09-12T04:32:22;15.70;83.80
13332;DHT22;6735;51.456;12.626;2023-09-12T04:34:49;15.60;83.80
13332;DHT22;6735;51.456;12.626;2023-09-12T04:37:14;15.70;83.90
13332;DHT22;6735;51.456;12.626;2023-09-12T04:39:40;15.60;84.00
13332;DHT22;6735;51.456;12.626;2023-09-12T04:42:05;15.70;84.00
13332;DHT22;6735;51.456;12.626;2023-09-12T04:44:35;15.60;84.00
13332;DHT22;6735;51.456;12.626;2023-09-12T04:47:01;15.70;83.90
13332;DHT22;6735;51.456;12.626;2023-09-12T04:49:28;15.70;83.90
13332;DHT22;6735;51.456;12.626;2023-09-12T04:51:53;15.70;83.90
13332;DHT22;6735;51.456;12.626;2023-09-12T04:54:19;15.70;83.90
13332;DHT22;6735;51.456;12.626;2023-09-12T04:56:44;15.70;83.80
13332;DHT22;6735;51.456;12.626;2023-09-12T04:59:10;15.70;83.80
13332;DHT22;6735;51.456;12.626;2023-09-12T05:01:35;15.70;83.80
13332;DHT22;6735;51.456;12.626;2023-09-12T05:04:01;15.70;83.80
13332;DHT22;6735;51.456;12.626;2023-09-12T05:06:28;15.80;83.90
13332;DHT22;6735;51.456;12.626;2023-09-12T05:08:53;15.80;83.90
13332;DHT22;6735;51.456;12.626;2023-09-12T05:11:19;15.80;83.90
13332;DHT22;6735;51.456;12.626;2023-09-12T05:13:45;15.90;83.80
13332;DHT22;6735;51.456;12.626;2023-09-12T05:16:10;15.80;83.80
13332;DHT22;6735;51.456;12.626;2023-09-12T05:18:36;15.90;83.70
13332;DHT22;6735;51.456;12.626;2023-09-12T05:21:01;16.10;83.70
13332;DHT22;6735;51.456;12.626;2023-09-12T05:23:27;16.20;83.50
13332;DHT22;6735;51.456;12.626;2023-09-12T05:25:52;16.50;83.20
13332;DHT22;6735;51.456;12.626;2023-09-12T05:28:18;16.90;82.60
13332;DHT22;6735;51.456;12.626;2023-09-12T05:30:43;17.10;81.70
13332;DHT22;6735;51.456;12.626;2023-09-12T05:33:09;17.70;80.90
13332;DHT22;6735;51.456;12.626;2023-09-12T05:35:34;18.40;78.80
13332;DHT22;6735;51.456;12.626;2023-09-12T05:38:00;19.10;77.30
13332;DHT22;6735;51.456;12.626;2023-09-12T05:40:25;19.60;76.00
13332;DHT22;6735;51.456;12.626;2023-09-12T05:42:51;20.00;74.70
13332;DHT22;6735;51.456;12.626;2023-09-12T05:45:16;20.50;74.00
13332;DHT22;6735;51.456;12.626;2023-09-12T05:47:42;20.90;72.80
13332;DHT22;6735;51.456;12.626;2023-09-12T05:50:07;21.20;71.70
13332;DHT22;6735;51.456;12.626;2023-09-12T05:52:33;21.60;71.00
13332;DHT22;6735;51.456;12.626;2023-09-12T05:54:59;21.70;70.50
13332;DHT22;6735;51.456;12.626;2023-09-12T05:57:24;21.80;70.30
13332;DHT22;6735;51.456;12.626;2023-09-12T05:59:50;21.20;69.70
13332;DHT22;6735;51.456;12.626;2023-09-12T06:02:15;20.70;72.10
13332;DHT22;6735;51.456;12.626;2023-09-12T06:04:43;20.20;73.00
13332;DHT22;6735;51.456;12.626;2023-09-12T06:07:08;19.90;73.70
13332;DHT22;6735;51.456;12.626;2023-09-12T06:09:34;19.60;74.30
13332;DHT22;6735;51.456;12.626;2023-09-12T06:11:59;19.50;74.50
13332;DHT22;6735;51.456;12.626;2023-09-12T06:14:25;19.40;74.90
13332;DHT22;6735;51.456;12.626;2023-09-12T06:16:50;19.30;75.10
13332;DHT22;6735;51.456;12.626;2023-09-12T06:19:16;19.30;75.00
13332;DHT22;6735;51.456;12.626;2023-09-12T06:21:43;19.20;75.10
13332;DHT22;6735;51.456;12.626;2023-09-12T06:24:10;19.20;75.20
13332;DHT22;6735;51.456;12.626;2023-09-12T06:26:36;19.30;75.30
13332;DHT22;6735;51.456;12.626;2023-09-12T06:29:02;19.30;75.40
13332;DHT22;6735;51.456;12.626;2023-09-12T06:31:28;19.40;75.40
13332;DHT22;6735;51.456;12.626;2023-09-12T06:33:53;19.40;75.50
13332;DHT22;6735;51.456;12.626;2023-09-12T06:36:19;19.50;75.50
13332;DHT22;6735;51.456;12.626;2023-09-12T06:38:44;19.60;75.50
13332;DHT22;6735;51.456;12.626;2023-09-12T06:41:10;19.70;75.20
13332;DHT22;6735;51.456;12.626;2023-09-12T06:43:35;19.80;75.00
13332;DHT22;6735;51.456;12.626;2023-09-12T06:46:01;20.00;74.80
13332;DHT22;6735;51.456;12.626;2023-09-12T06:48:26;20.10;74.90
13332;DHT22;6735;51.456;12.626;2023-09-12T06:50:54;20.10;74.80
13332;DHT22;6735;51.456;12.626;2023-09-12T06:53:20;20.30;74.60
13332;DHT22;6735;51.456;12.626;2023-09-12T06:55:45;20.40;74.20
13332;DHT22;6735;51.456;12.626;2023-09-12T06:58:12;20.70;73.70
13332;DHT22;6735;51.456;12.626;2023-09-12T07:00:37;20.80;73.40
13332;DHT22;6735;51.456;12.626;2023-09-12T07:03:03;21.00;73.00
13332;DHT22;6735;51.456;12.626;2023-09-12T07:05:28;21.20;72.50
13332;DHT22;6735;51.456;12.626;2023-09-12T07:07:54;21.40;71.80
13332;DHT22;6735;51.456;12.626;2023-09-12T07:10:19;21.60;71.50
13332;DHT22;6735;51.456;12.626;2023-09-12T07:12:45;21.80;71.20
13332;DHT22;6735;51.456;12.626;2023-09-12T07:15:10;22.00;70.50
13332;DHT22;6735;51.456;12.626;2023-09-12T07:17:36;22.20;70.20
13332;DHT22;6735;51.456;12.626;2023-09-12T07:20:01;22.30;69.50
13332;DHT22;6735;51.456;12.626;2023-09-12T07:22:27;22.70;69.10
13332;DHT22;6735;51.456;12.626;2023-09-12T07:24:53;23.30;68.20
13332;DHT22;6735;51.456;12.626;2023-09-12T07:27:19;23.80;66.50
13332;DHT22;6735;51.456;12.626;2023-09-12T07:29:44;24.20;65.80
13332;DHT22;6735;51.456;12.626;2023-09-12T07:32:10;25.00;64.50
13332;DHT22;6735;51.456;12.626;2023-09-12T07:34:35;25.40;63.90
13332;DHT22;6735;51.456;12.626;2023-09-12T07:37:03;25.70;62.00
13332;DHT22;6735;51.456;12.626;2023-09-12T07:39:28;25.90;62.70
13332;DHT22;6735;51.456;12.626;2023-09-12T07:41:54;26.20;62.00
13332;DHT22;6735;51.456;12.626;2023-09-12T07:44:20;26.40;61.60
13332;DHT22;6735;51.456;12.626;2023-09-12T07:46:46;26.80;61.10
13332;DHT22;6735;51.456;12.626;2023-09-12T07:49:11;27.10;60.20
13332;DHT22;6735;51.456;12.626;2023-09-12T07:51:37;27.30;59.40
13332;DHT22;6735;51.456;12.626;2023-09-12T07:54:03;27.50;58.80
13332;DHT22;6735;51.456;12.626;2023-09-12T07:56:28;27.80;58.20
13332;DHT22;6735;51.456;12.626;2023-09-12T07:58:56;27.90;57.90
13332;DHT22;6735;51.456;12.626;2023-09-12T08:01:22;28.10;57.20
13332;DHT22;6735;51.456;12.626;2023-09-12T08:03:47;28.40;56.30
13332;DHT22;6735;51.456;12.626;2023-09-12T08:06:13;28.60;55.70
13332;DHT22;6735;51.456;12.626;2023-09-12T08:08:38;28.80;55.10
13332;DHT22;6735;51.456;12.626;2023-09-12T08:11:04;28.90;54.60
13332;DHT22;6735;51.456;12.626;2023-09-12T08:13:30;28.90;54.30
13332;DHT22;6735;51.456;12.626;2023-09-12T08:15:56;29.00;53.70
13332;DHT22;6735;51.456;12.626;2023-09-12T08:20:48;28.90;52.70
13332;DHT22;6735;51.456;12.626;2023-09-12T08:23:14;28.90;52.80
13332;DHT22;6735;51.456;12.626;2023-09-12T08:25:39;28.90;52.60
13332;DHT22;6735;51.456;12.626;2023-09-12T08:28:05;29.00;52.00
13332;DHT22;6735;51.456;12.626;2023-09-12T08:30:30;28.90;52.00
13332;DHT22;6735;51.456;12.626;2023-09-12T08:32:56;29.10;51.80
13332;DHT22;6735;51.456;12.626;2023-09-12T08:35:22;29.20;51.20
13332;DHT22;6735;51.456;12.626;2023-09-12T08:37:47;29.40;50.90
13332;DHT22;6735;51.456;12.626;2023-09-12T08:40:13;29.60;50.30
13332;DHT22;6735;51.456;12.626;2023-09-12T08:42:41;29.60;50.40
13332;DHT22;6735;51.456;12.626;2023-09-12T08:45:12;29.80;49.20
13332;DHT22;6735;51.456;12.626;2023-09-12T08:47:41;29.80;49.40
13332;DHT22;6735;51.456;12.626;2023-09-12T08:50:13;29.90;48.90
13332;DHT22;6735;51.456;12.626;2023-09-12T08:52:44;29.70;49.30
13332;DHT22;6735;51.456;12.626;2023-09-12T08:55:11;29.70;48.90
13332;DHT22;6735;51.456;12.626;2023-09-12T08:57:48;29.70;49.50
13332;DHT22;6735;51.456;12.626;2023-09-12T09:00:15;29.80;48.30
13332;DHT22;6735;51.456;12.626;2023-09-12T09:02:41;29.70;49.40
13332;DHT22;6735;51.456;12.626;2023-09-12T09:05:08;29.60;49.50
13332;DHT22;6735;51.456;12.626;2023-09-12T09:07:39;29.70;49.50
13332;DHT22;6735;51.456;12.626;2023-09-12T09:10:13;29.70;49.40
13332;DHT22;6735;51.456;12.626;2023-09-12T09:12:40;29.70;49.40
13332;DHT22;6735;51.456;12.626;2023-09-12T09:15:29;29.90;49.30
13332;DHT22;6735;51.456;12.626;2023-09-12T09:17:57;29.90;49.00
13332;DHT22;6735;51.456;12.626;2023-09-12T09:20:34;29.90;49.10
13332;DHT22;6735;51.456;12.626;2023-09-12T09:23:04;29.80;49.40
13332;DHT22;6735;51.456;12.626;2023-09-12T09:25:42;29.70;49.60
13332;DHT22;6735;51.456;12.626;2023-09-12T09:28:19;29.70;49.70
13332;DHT22;6735;51.456;12.626;2023-09-12T09:30:49;29.90;49.50
13332;DHT22;6735;51.456;12.626;2023-09-12T09:33:16;30.00;49.50
13332;DHT22;6735;51.456;12.626;2023-09-12T09:35:42;29.80;49.80
13332;DHT22;6735;51.456;12.626;2023-09-12T09:38:08;29.60;50.20
13332;DHT22;6735;51.456;12.626;2023-09-12T09:40:35;29.70;50.20
13332;DHT22;6735;51.456;12.626;2023-09-12T09:43:03;29.50;50.70
13332;DHT22;6735;51.456;12.626;2023-09-12T09:45:30;29.50;50.60
13332;DHT22;6735;51.456;12.626;2023-09-12T09:48:04;29.50;50.90
13332;DHT22;6735;51.456;12.626;2023-09-12T09:50:30;29.50;50.90
13332;DHT22;6735;51.456;12.626;2023-09-12T09:52:55;29.30;51.30
13332;DHT22;6735;51.456;12.626;2023-09-12T09:55:23;29.20;51.40
13332;DHT22;6735;51.456;12.626;2023-09-12T09:57:49;29.20;51.50
13332;DHT22;6735;51.456;12.626;2023-09-12T10:00:18;29.20;51.70
13332;DHT22;6735;51.456;12.626;2023-09-12T10:02:44;29.20;51.70
13332;DHT22;6735;51.456;12.626;2023-09-12T10:05:11;29.20;51.80
13332;DHT22;6735;51.456;12.626;2023-09-12T10:07:39;29.30;51.90
13332;DHT22;6735;51.456;12.626;2023-09-12T10:10:05;29.20;52.00
13332;DHT22;6735;51.456;12.626;2023-09-12T10:12:39;29.20;52.10
13332;DHT22;6735;51.456;12.626;2023-09-12T10:15:10;29.10;52.10
13332;DHT22;6735;51.456;12.626;2023-09-12T10:17:37;29.00;52.50
13332;DHT22;6735;51.456;12.626;2023-09-12T10:20:09;29.00;52.40
13332;DHT22;6735;51.456;12.626;2023-09-12T10:22:40;29.00;52.50
13332;DHT22;6735;51.456;12.626;2023-09-12T10:25:09;28.90;52.60
13332;DHT22;6735;51.456;12.626;2023-09-12T10:27:36;29.00;52.70
13332;DHT22;6735;51.456;12.626;2023-09-12T10:30:02;29.10;52.50
13332;DHT22;6735;51.456;12.626;2023-09-12T10:32:30;29.00;52.70
13332;DHT22;6735;51.456;12.626;2023-09-12T10:34:59;28.80;53.00
13332;DHT22;6735;51.456;12.626;2023-09-12T10:37:26;28.90;53.10
13332;DHT22;6735;51.456;12.626;2023-09-12T10:39:53;28.90;53.00
13332;DHT22;6735;51.456;12.626;2023-09-12T10:42:20;28.80;53.00
13332;DHT22;6735;51.456;12.626;2023-09-12T10:44:47;28.90;53.00
13332;DHT22;6735;51.456;12.626;2023-09-12T10:47:14;28.90;53.10
13332;DHT22;6735;51.456;12.626;2023-09-12T10:49:40;28.90;52.80
13332;DHT22;6735;51.456;12.626;2023-09-12T10:52:08;29.10;52.70
13332;DHT22;6735;51.456;12.626;2023-09-12T10:54:41;29.00;52.90
13332;DHT22;6735;51.456;12.626;2023-09-12T10:57:10;29.00;52.90
13332;DHT22;6735;51.456;12.626;2023-09-12T11:02:34;29.20;52.90
13332;DHT22;6735;51.456;12.626;2023-09-12T11:05:03;29.20;52.80
13332;DHT22;6735;51.456;12.626;2023-09-12T11:07:32;29.10;52.90
13332;DHT22;6735;51.456;12.626;2023-09-12T11:12:42;29.20;53.00
13332;DHT22;6735;51.456;12.626;2023-09-12T11:15:09;29.20;52.80
13332;DHT22;6735;51.456;12.626;2023-09-12T11:17:43;29.30;52.70
13332;DHT22;6735;51.456;12.626;2023-09-12T11:20:09;29.30;52.10
13332;DHT22;6735;51.456;12.626;2023-09-12T11:22:43;29.30;52.50
13332;DHT22;6735;51.456;12.626;2023-09-12T11:25:16;29.30;52.50
13332;DHT22;6735;51.456;12.626;2023-09-12T11:28:02;29.30;52.20
13332;DHT22;6735;51.456;12.626;2023-09-12T11:30:29;29.30;52.20
13332;DHT22;6735;51.456;12.626;2023-09-12T11:32:58;29.40;52.40
13332;DHT22;6735;51.456;12.626;2023-09-12T11:35:27;29.40;52.50
13332;DHT22;6735;51.456;12.626;2023-09-12T11:37:57;29.30;52.50
13332;DHT22;6735;51.456;12.626;2023-09-12T11:42:50;29.30;52.20
13332;DHT22;6735;51.456;12.626;2023-09-12T11:45:19;29.40;52.00
13332;DHT22;6735;51.456;12.626;2023-09-12T11:47:45;29.40;52.00
13332;DHT22;6735;51.456;12.626;2023-09-12T11:50:31;29.50;51.80
13332;DHT22;6735;51.456;12.626;2023-09-12T11:55:49;29.60;51.40
13332;DHT22;6735;51.456;12.626;2023-09-12T11:58:17;29.60;51.20
13332;DHT22;6735;51.456;12.626;2023-09-12T12:00:45;29.60;51.40
13332;DHT22;6735;51.456;12.626;2023-09-12T12:03:12;29.70;51.20
13332;DHT22;6735;51.456;12.626;2023-09-12T12:05:37;29.70;50.90
13332;DHT22;6735;51.456;12.626;2023-09-12T12:08:03;29.60;51.00
13332;DHT22;6735;51.456;12.626;2023-09-12T12:10:29;29.50;51.10
13332;DHT22;6735;51.456;12.626;2023-09-12T12:12:55;29.40;51.00
13332;DHT22;6735;51.456;12.626;2023-09-12T12:15:21;29.40;50.80
13332;DHT22;6735;51.456;12.626;2023-09-12T12:17:47;29.50;50.80
13332;DHT22;6735;51.456;12.626;2023-09-12T12:20:12;29.60;50.70
13332;DHT22;6735;51.456;12.626;2023-09-12T12:22:39;29.70;50.60
13332;DHT22;6735;51.456;12.626;2023-09-12T12:25:09;29.70;50.80
13332;DHT22;6735;51.456;12.626;2023-09-12T12:27:37;29.60;50.60
13332;DHT22;6735;51.456;12.626;2023-09-12T12:30:07;29.70;50.50
13332;DHT22;6735;51.456;12.626;2023-09-12T12:32:34;29.70;50.20
13332;DHT22;6735;51.456;12.626;2023-09-12T12:34:59;29.80;49.70
13332;DHT22;6735;51.456;12.626;2023-09-12T12:37:29;30.00;49.40
13332;DHT22;6735;51.456;12.626;2023-09-12T12:39:58;30.00;49.40
13332;DHT22;6735;51.456;12.626;2023-09-12T12:42:25;30.10;49.50
13332;DHT22;6735;51.456;12.626;2023-09-12T12:44:54;30.10;49.30
13332;DHT22;6735;51.456;12.626;2023-09-12T12:47:21;30.20;49.10
13332;DHT22;6735;51.456;12.626;2023-09-12T12:49:53;30.30;49.00
13332;DHT22;6735;51.456;12.626;2023-09-12T12:52:23;30.30;49.00
13332;DHT22;6735;51.456;12.626;2023-09-12T12:54:49;30.30;48.90
13332;DHT22;6735;51.456;12.626;2023-09-12T12:57:18;30.30;48.90
13332;DHT22;6735;51.456;12.626;2023-09-12T12:59:46;30.30;49.10
13332;DHT22;6735;51.456;12.626;2023-09-12T13:02:12;30.30;49.20
13332;DHT22;6735;51.456;12.626;2023-09-12T13:04:38;30.20;49.10
13332;DHT22;6735;51.456;12.626;2023-09-12T13:07:04;30.30;49.00
13332;DHT22;6735;51.456;12.626;2023-09-12T13:09:29;30.20;48.90
13332;DHT22;6735;51.456;12.626;2023-09-12T13:11:55;30.20;48.90
13332;DHT22;6735;51.456;12.626;2023-09-12T13:14:20;30.20;48.90
13332;DHT22;6735;51.456;12.626;2023-09-12T13:16:50;30.20;49.10
13332;DHT22;6735;51.456;12.626;2023-09-12T13:19:16;30.20;49.10
13332;DHT22;6735;51.456;12.626;2023-09-12T13:21:41;30.20;49.00
13332;DHT22;6735;51.456;12.626;2023-09-12T13:24:08;30.20;49.00
13332;DHT22;6735;51.456;12.626;2023-09-12T13:26:33;30.20;48.90
13332;DHT22;6735;51.456;12.626;2023-09-12T13:28:59;30.20;48.60
13332;DHT22;6735;51.456;12.626;2023-09-12T13:31:24;30.30;48.70
13332;DHT22;6735;51.456;12.626;2023-09-12T13:33:50;30.40;48.60
13332;DHT22;6735;51.456;12.626;2023-09-12T13:36:15;30.40;48.60
13332;DHT22;6735;51.456;12.626;2023-09-12T13:38:41;30.30;48.70
13332;DHT22;6735;51.456;12.626;2023-09-12T13:41:23;30.30;48.70
13332;DHT22;6735;51.456;12.626;2023-09-12T13:43:50;30.40;48.70
13332;DHT22;6735;51.456;12.626;2023-09-12T13:46:16;30.30;48.70
13332;DHT22;6735;51.456;12.626;2023-09-12T13:48:41;30.20;48.60
13332;DHT22;6735;51.456;12.626;2023-09-12T13:51:07;30.20;48.50
13332;DHT22;6735;51.456;12.626;2023-09-12T13:53:33;30.10;48.40
13332;DHT22;6735;51.456;12.626;2023-09-12T13:55:59;30.00;48.40
13332;DHT22;6735;51.456;12.626;2023-09-12T13:58:26;29.90;48.50
13332;DHT22;6735;51.456;12.626;2023-09-12T14:00:51;29.90;48.20
13332;DHT22;6735;51.456;12.626;2023-09-12T14:03:17;29.70;48.40
13332;DHT22;6735;51.456;12.626;2023-09-12T14:05:43;29.70;48.50
13332;DHT22;6735;51.456;12.626;2023-09-12T14:08:08;29.70;48.60
13332;DHT22;6735;51.456;12.626;2023-09-12T14:10:34;29.70;48.60
13332;DHT22;6735;51.456;12.626;2023-09-12T14:13:00;29.70;48.40
13332;DHT22;6735;51.456;12.626;2023-09-12T14:15:25;29.70;48.20
13332;DHT22;6735;51.456;12.626;2023-09-12T14:17:51;29.70;48.30
13332;DHT22;6735;51.456;12.626;2023-09-12T14:20:17;29.80;48.40
13332;DHT22;6735;51.456;12.626;2023-09-12T14:22:43;29.80;48.70
13332;DHT22;6735;51.456;12.626;2023-09-12T14:25:09;29.80;48.80
13332;DHT22;6735;51.456;12.626;2023-09-12T14:27:42;29.80;48.50
13332;DHT22;6735;51.456;12.626;2023-09-12T14:30:09;29.80;48.40
13332;DHT22;6735;51.456;12.626;2023-09-12T14:32:35;29.90;48.40
13332;DHT22;6735;51.456;12.626;2023-09-12T14:35:00;29.90;48.50
13332;DHT22;6735;51.456;12.626;2023-09-12T14:37:26;29.90;48.20
13332;DHT22;6735;51.456;12.626;2023-09-12T14:39:53;29.90;48.10
13332;DHT22;6735;51.456;12.626;2023-09-12T14:42:19;29.80;48.10
13332;DHT22;6735;51.456;12.626;2023-09-12T14:44:44;29.70;48.30
13332;DHT22;6735;51.456;12.626;2023-09-12T14:47:10;29.70;48.50
13332;DHT22;6735;51.456;12.626;2023-09-12T14:49:35;29.70;48.60
13332;DHT22;6735;51.456;12.626;2023-09-12T14:52:01;29.60;48.80
13332;DHT22;6735;51.456;12.626;2023-09-12T14:54:26;29.60;48.90
13332;DHT22;6735;51.456;12.626;2023-09-12T14:56:52;29.50;48.90
13332;DHT22;6735;51.456;12.626;2023-09-12T14:59:17;29.50;48.80
13332;DHT22;6735;51.456;12.626;2023-09-12T15:01:43;29.40;49.10
13332;DHT22;6735;51.456;12.626;2023-09-12T15:04:10;29.40;49.20
13332;DHT22;6735;51.456;12.626;2023-09-12T15:06:36;29.30;49.10
13332;DHT22;6735;51.456;12.626;2023-09-12T15:09:02;29.30;49.30
13332;DHT22;6735;51.456;12.626;2023-09-12T15:11:27;29.20;49.60
13332;DHT22;6735;51.456;12.626;2023-09-12T15:13:53;29.20;49.60
13332;DHT22;6735;51.456;12.626;2023-09-12T15:16:18;29.20;49.70
13332;DHT22;6735;51.456;12.626;2023-09-12T15:18:44;29.20;49.70
13332;DHT22;6735;51.456;12.626;2023-09-12T15:21:10;29.10;49.60
13332;DHT22;6735;51.456;12.626;2023-09-12T15:23:35;29.10;49.50
13332;DHT22;6735;51.456;12.626;2023-09-12T15:26:01;29.10;49.80
13332;DHT22;6735;51.456;12.626;2023-09-12T15:28:26;29.00;49.80
13332;DHT22;6735;51.456;12.626;2023-09-12T15:30:51;28.90;49.90
13332;DHT22;6735;51.456;12.626;2023-09-12T15:33:17;28.80;50.20
13332;DHT22;6735;51.456;12.626;2023-09-12T15:35:42;28.80;50.30
13332;DHT22;6735;51.456;12.626;2023-09-12T15:38:08;28.70;50.40
13332;DHT22;6735;51.456;12.626;2023-09-12T15:40:33;28.70;50.20
13332;DHT22;6735;51.456;12.626;2023-09-12T15:42:59;28.70;50.50
13332;DHT22;6735;51.456;12.626;2023-09-12T15:45:25;28.70;50.50